sensor_id;sensor_type;location;lat;lon;timestamp;temperature;humidity
13754;DHT22;6948;51.216;6.778;2023-04-30T00:00:07;11.60;99.90
13754;DHT22;6948;51.216;6.778;2023-04-30T00:02:34;11.60;99.90
13754;DHT22;6948;51.216;6.778;2023-04-30T00:05:00;11.50;99.90
13754;DHT22;6948;51.216;6.778;2023-04-30T00:07:26;11.50;99.90
13754;DHT22;6948;51.216;6.778;2023-04-30T00:09:52;11.50;99.90
13754;DHT22;6948;51.216;6.778;2023-04-30T00:12:17;11.40;99.90
13754;DHT22;6948;51.216;6.778;2023-04-30T00:14:43;11.40;99.90
13754;DHT22;6948;51.216;6.778;2023-04-30T00:17:09;11.40;99.90
13754;DHT22;6948;51.216;6.778;2023-04-30T00:19:34;11.40;99.90
13754;DHT22;6948;51.216;6.778;2023-04-30T00:22:00;11.40;99.90
13754;DHT22;6948;51.216;6.778;2023-04-30T00:24:27;11.40;99.90
13754;DHT22;6948;51.216;6.778;2023-04-30T00:26:53;11.40;99.90
13754;DHT22;6948;51.216;6.778;2023-04-30T00:29:18;11.20;99.90
13754;DHT22;6948;51.216;6.778;2023-04-30T00:31:44;11.20;99.90
13754;DHT22;6948;51.216;6.778;2023-04-30T00:34:09;11.20;99.90
13754;DHT22;6948;51.216;6.778;2023-04-30T00:36:35;11.10;99.90
13754;DHT22;6948;51.216;6.778;2023-04-30T00:39:01;11.20;99.90
13754;DHT22;6948;51.216;6.778;2023-04-30T00:41:27;11.20;99.90
13754;DHT22;6948;51.216;6.778;2023-04-30T00:43:53;11.10;99.90
13754;DHT22;6948;51.216;6.778;2023-04-30T00:46:19;11.10;99.90
13754;DHT22;6948;51.216;6.778;2023-04-30T00:48:44;11.10;99.90
13754;DHT22;6948;51.216;6.778;2023-04-30T00:51:10;11.10;99.90
13754;DHT22;6948;51.216;6.778;2023-04-30T00:53:37;11.10;99.90
13754;DHT22;6948;51.216;6.778;2023-04-30T00:56:05;11.10;99.90
13754;DHT22;6948;51.216;6.778;2023-04-30T00:58:33;11.10;99.90
13754;DHT22;6948;51.216;6.778;2023-04-30T01:01:00;11.00;99.90
13754;DHT22;6948;51.216;6.778;2023-04-30T01:03:27;11.00;99.90
13754;DHT22;6948;51.216;6.778;2023-04-30T01:05:53;11.00;99.90
13754;DHT22;6948;51.216;6.778;2023-04-30T01:08:19;11.10;99.90
13754;DHT22;6948;51.216;6.778;2023-04-30T01:10:52;11.10;99.90
13754;DHT22;6948;51.216;6.778;2023-04-30T01:13:31;11.10;99.90
13754;DHT22;6948;51.216;6.778;2023-04-30T01:19:34;11.00;99.90
13754;DHT22;6948;51.216;6.778;2023-04-30T01:22:03;11.00;99.90
13754;DHT22;6948;51.216;6.778;2023-04-30T01:30:30;11.00;99.90
13754;DHT22;6948;51.216;6.778;2023-04-30T01:32:57;11.00;99.90
13754;DHT22;6948;51.216;6.778;2023-04-30T01:47:16;10.80;99.90
13754;DHT22;6948;51.216;6.778;2023-04-30T01:50:14;10.90;99.90
13754;DHT22;6948;51.216;6.778;2023-04-30T01:52:51;10.90;99.90
13754;DHT22;6948;51.216;6.778;2023-04-30T01:57:57;10.80;99.90
13754;DHT22;6948;51.216;6.778;2023-04-30T02:00:25;10.70;99.90
13754;DHT22;6948;51.216;6.778;2023-04-30T02:02:51;10.70;99.90
13754;DHT22;6948;51.216;6.778;2023-04-30T02:05:17;10.70;99.90
13754;DHT22;6948;51.216;6.778;2023-04-30T02:07:44;10.70;99.90
13754;DHT22;6948;51.216;6.778;2023-04-30T02:10:11;10.60;99.90
13754;DHT22;6948;51.216;6.778;2023-04-30T02:12:37;10.60;99.90
13754;DHT22;6948;51.216;6.778;2023-04-30T02:15:04;10.50;99.90
13754;DHT22;6948;51.216;6.778;2023-04-30T02:17:30;10.50;99.90
13754;DHT22;6948;51.216;6.778;2023-04-30T02:19:57;10.50;99.90
13754;DHT22;6948;51.216;6.778;2023-04-30T02:22:22;10.50;99.90
13754;DHT22;6948;51.216;6.778;2023-04-30T02:24:48;10.50;99.90
13754;DHT22;6948;51.216;6.778;2023-04-30T02:27:14;10.50;99.90
13754;DHT22;6948;51.216;6.778;2023-04-30T02:29:40;10.50;99.90
13754;DHT22;6948;51.216;6.778;2023-04-30T02:32:06;10.50;99.90
13754;DHT22;6948;51.216;6.778;2023-04-30T02:34:32;10.50;99.90
13754;DHT22;6948;51.216;6.778;2023-04-30T02:36:57;10.60;99.90
13754;DHT22;6948;51.216;6.778;2023-04-30T02:39:23;10.60;99.90
13754;DHT22;6948;51.216;6.778;2023-04-30T02:41:48;10.60;99.90
13754;DHT22;6948;51.216;6.778;2023-04-30T02:44:14;10.70;99.90
13754;DHT22;6948;51.216;6.778;2023-04-30T02:46:40;10.70;99.90
13754;DHT22;6948;51.216;6.778;2023-04-30T02:49:06;10.70;99.90
13754;DHT22;6948;51.216;6.778;2023-04-30T02:51:31;10.70;99.90
13754;DHT22;6948;51.216;6.778;2023-04-30T02:53:57;10.70;99.90
13754;DHT22;6948;51.216;6.778;2023-04-30T02:56:23;10.70;99.90
13754;DHT22;6948;51.216;6.778;2023-04-30T02:58:48;10.60;99.90
13754;DHT22;6948;51.216;6.778;2023-04-30T03:01:14;10.60;99.90
13754;DHT22;6948;51.216;6.778;2023-04-30T03:03:40;10.70;99.90
13754;DHT22;6948;51.216;6.778;2023-04-30T03:06:06;10.70;99.90
13754;DHT22;6948;51.216;6.778;2023-04-30T03:08:31;10.70;99.90
13754;DHT22;6948;51.216;6.778;2023-04-30T03:10:57;10.60;99.90
13754;DHT22;6948;51.216;6.778;2023-04-30T03:13:23;10.50;99.90
13754;DHT22;6948;51.216;6.778;2023-04-30T03:15:56;10.50;99.90
13754;DHT22;6948;51.216;6.778;2023-04-30T03:18:23;10.50;99.90
13754;DHT22;6948;51.216;6.778;2023-04-30T03:20:49;10.50;99.90
13754;DHT22;6948;51.216;6.778;2023-04-30T03:23:15;10.50;99.90
13754;DHT22;6948;51.216;6.778;2023-04-30T03:25:41;10.50;99.90
13754;DHT22;6948;51.216;6.778;2023-04-30T03:28:07;10.60;99.90
13754;DHT22;6948;51.216;6.778;2023-04-30T03:30:32;10.50;99.90
13754;DHT22;6948;51.216;6.778;2023-04-30T03:32:58;10.50;99.90
13754;DHT22;6948;51.216;6.778;2023-04-30T03:35:24;10.40;99.90
13754;DHT22;6948;51.216;6.778;2023-04-30T03:37:49;10.40;99.90
13754;DHT22;6948;51.216;6.778;2023-04-30T03:40:15;10.30;99.90
13754;DHT22;6948;51.216;6.778;2023-04-30T03:42:41;10.40;99.90
13754;DHT22;6948;51.216;6.778;2023-04-30T03:45:07;10.30;99.90
13754;DHT22;6948;51.216;6.778;2023-04-30T03:47:34;10.40;99.90
13754;DHT22;6948;51.216;6.778;2023-04-30T03:50:02;10.40;99.90
13754;DHT22;6948;51.216;6.778;2023-04-30T03:52:28;10.40;99.90
13754;DHT22;6948;51.216;6.778;2023-04-30T03:54:54;10.30;99.90
13754;DHT22;6948;51.216;6.778;2023-04-30T03:57:20;10.20;99.90
13754;DHT22;6948;51.216;6.778;2023-04-30T03:59:46;10.10;99.90
13754;DHT22;6948;51.216;6.778;2023-04-30T04:02:12;10.20;99.90
13754;DHT22;6948;51.216;6.778;2023-04-30T04:04:38;10.30;99.90
13754;DHT22;6948;51.216;6.778;2023-04-30T04:07:04;10.20;99.90
13754;DHT22;6948;51.216;6.778;2023-04-30T04:09:32;10.00;99.90
13754;DHT22;6948;51.216;6.778;2023-04-30T04:11:57;9.70;99.90
13754;DHT22;6948;51.216;6.778;2023-04-30T04:14:23;9.60;99.90
13754;DHT22;6948;51.216;6.778;2023-04-30T04:16:49;9.60;99.90
13754;DHT22;6948;51.216;6.778;2023-04-30T04:19:14;9.60;99.90
13754;DHT22;6948;51.216;6.778;2023-04-30T04:21:40;9.70;99.90
13754;DHT22;6948;51.216;6.778;2023-04-30T04:24:06;9.80;99.90
13754;DHT22;6948;51.216;6.778;2023-04-30T04:26:35;9.70;99.90
13754;DHT22;6948;51.216;6.778;2023-04-30T04:29:02;9.60;99.90
13754;DHT22;6948;51.216;6.778;2023-04-30T04:31:28;9.50;99.90
13754;DHT22;6948;51.216;6.778;2023-04-30T04:33:56;9.50;99.90
13754;DHT22;6948;51.216;6.778;2023-04-30T04:36:24;9.60;99.90
13754;DHT22;6948;51.216;6.778;2023-04-30T04:38:52;9.50;99.90
13754;DHT22;6948;51.216;6.778;2023-04-30T04:41:18;9.40;99.90
13754;DHT22;6948;51.216;6.778;2023-04-30T04:43:43;9.40;99.90
13754;DHT22;6948;51.216;6.778;2023-04-30T04:46:09;9.40;99.90
13754;DHT22;6948;51.216;6.778;2023-04-30T04:48:35;9.50;99.90
13754;DHT22;6948;51.216;6.778;2023-04-30T04:51:01;9.60;99.90
13754;DHT22;6948;51.216;6.778;2023-04-30T04:53:26;9.70;99.90
13754;DHT22;6948;51.216;6.778;2023-04-30T04:55:52;9.70;99.90
13754;DHT22;6948;51.216;6.778;2023-04-30T04:58:18;9.80;99.90
13754;DHT22;6948;51.216;6.778;2023-04-30T05:00:43;9.90;99.90
13754;DHT22;6948;51.216;6.778;2023-04-30T05:03:09;10.00;99.90
13754;DHT22;6948;51.216;6.778;2023-04-30T05:05:35;9.90;99.90
13754;DHT22;6948;51.216;6.778;2023-04-30T05:08:01;9.90;99.90
13754;DHT22;6948;51.216;6.778;2023-04-30T05:10:26;10.00;99.90
13754;DHT22;6948;51.216;6.778;2023-04-30T05:12:52;10.10;99.90
13754;DHT22;6948;51.216;6.778;2023-04-30T05:15:18;10.10;99.90
13754;DHT22;6948;51.216;6.778;2023-04-30T05:17:44;10.10;99.90
13754;DHT22;6948;51.216;6.778;2023-04-30T05:20:10;10.10;99.90
13754;DHT22;6948;51.216;6.778;2023-04-30T05:22:37;10.20;99.90
13754;DHT22;6948;51.216;6.778;2023-04-30T05:25:02;10.20;99.90
13754;DHT22;6948;51.216;6.778;2023-04-30T05:27:28;10.20;99.90
13754;DHT22;6948;51.216;6.778;2023-04-30T05:29:54;10.20;99.90
13754;DHT22;6948;51.216;6.778;2023-04-30T05:32:21;10.30;99.90
13754;DHT22;6948;51.216;6.778;2023-04-30T05:34:47;10.40;99.90
13754;DHT22;6948;51.216;6.778;2023-04-30T05:37:12;10.50;99.90
13754;DHT22;6948;51.216;6.778;2023-04-30T05:39:39;10.60;99.90
13754;DHT22;6948;51.216;6.778;2023-04-30T05:42:05;10.70;99.90
13754;DHT22;6948;51.216;6.778;2023-04-30T05:44:30;10.80;99.90
13754;DHT22;6948;51.216;6.778;2023-04-30T05:46:56;10.90;99.90
13754;DHT22;6948;51.216;6.778;2023-04-30T05:49:22;10.90;99.90
13754;DHT22;6948;51.216;6.778;2023-04-30T05:51:47;11.10;99.90
13754;DHT22;6948;51.216;6.778;2023-04-30T05:54:13;11.20;99.90
13754;DHT22;6948;51.216;6.778;2023-04-30T05:56:38;11.20;99.90
13754;DHT22;6948;51.216;6.778;2023-04-30T05:59:04;11.30;99.90
13754;DHT22;6948;51.216;6.778;2023-04-30T06:01:30;11.40;99.90
13754;DHT22;6948;51.216;6.778;2023-04-30T06:03:55;11.50;99.90
13754;DHT22;6948;51.216;6.778;2023-04-30T06:06:22;11.70;99.90
13754;DHT22;6948;51.216;6.778;2023-04-30T06:08:48;11.90;99.90
13754;DHT22;6948;51.216;6.778;2023-04-30T06:11:14;12.10;99.90
13754;DHT22;6948;51.216;6.778;2023-04-30T06:13:40;12.20;99.90
13754;DHT22;6948;51.216;6.778;2023-04-30T06:16:06;12.30;99.90
13754;DHT22;6948;51.216;6.778;2023-04-30T06:18:32;12.40;99.90
13754;DHT22;6948;51.216;6.778;2023-04-30T06:20:58;12.50;99.90
13754;DHT22;6948;51.216;6.778;2023-04-30T06:23:24;12.60;99.90
13754;DHT22;6948;51.216;6.778;2023-04-30T06:25:49;12.60;99.90
13754;DHT22;6948;51.216;6.778;2023-04-30T06:28:15;12.60;99.90
13754;DHT22;6948;51.216;6.778;2023-04-30T06:30:42;12.80;99.90
13754;DHT22;6948;51.216;6.778;2023-04-30T06:33:07;12.90;99.90
13754;DHT22;6948;51.216;6.778;2023-04-30T06:35:33;12.90;99.90
13754;DHT22;6948;51.216;6.778;2023-04-30T06:37:59;13.00;99.90
13754;DHT22;6948;51.216;6.778;2023-04-30T06:40:25;13.00;99.90
13754;DHT22;6948;51.216;6.778;2023-04-30T06:42:50;13.10;99.90
13754;DHT22;6948;51.216;6.778;2023-04-30T06:45:16;13.10;99.90
13754;DHT22;6948;51.216;6.778;2023-04-30T06:47:41;13.00;99.90
13754;DHT22;6948;51.216;6.778;2023-04-30T06:50:08;13.10;99.90
13754;DHT22;6948;51.216;6.778;2023-04-30T06:52:33;13.00;99.90
13754;DHT22;6948;51.216;6.778;2023-04-30T06:54:59;13.10;99.90
13754;DHT22;6948;51.216;6.778;2023-04-30T06:57:26;13.10;99.90
13754;DHT22;6948;51.216;6.778;2023-04-30T06:59:52;13.30;99.90
13754;DHT22;6948;51.216;6.778;2023-04-30T07:02:18;13.30;99.90
13754;DHT22;6948;51.216;6.778;2023-04-30T07:04:43;13.30;99.90
13754;DHT22;6948;51.216;6.778;2023-04-30T07:07:09;13.40;99.90
13754;DHT22;6948;51.216;6.778;2023-04-30T07:09:35;13.40;99.90
13754;DHT22;6948;51.216;6.778;2023-04-30T07:12:01;13.40;99.90
13754;DHT22;6948;51.216;6.778;2023-04-30T07:14:27;13.50;99.90
13754;DHT22;6948;51.216;6.778;2023-04-30T07:16:52;13.60;99.90
13754;DHT22;6948;51.216;6.778;2023-04-30T07:19:18;13.70;99.90
13754;DHT22;6948;51.216;6.778;2023-04-30T07:21:44;13.70;99.90
13754;DHT22;6948;51.216;6.778;2023-04-30T07:24:10;13.80;99.90
13754;DHT22;6948;51.216;6.778;2023-04-30T07:26:36;13.80;99.90
13754;DHT22;6948;51.216;6.778;2023-04-30T07:29:03;13.90;99.90
13754;DHT22;6948;51.216;6.778;2023-04-30T07:31:28;14.00;99.90
13754;DHT22;6948;51.216;6.778;2023-04-30T07:33:54;14.20;99.90
13754;DHT22;6948;51.216;6.778;2023-04-30T07:36:20;14.30;99.90
13754;DHT22;6948;51.216;6.778;2023-04-30T07:38:46;14.30;99.90
13754;DHT22;6948;51.216;6.778;2023-04-30T07:41:12;14.40;99.90
13754;DHT22;6948;51.216;6.778;2023-04-30T07:43:38;14.50;99.90
13754;DHT22;6948;51.216;6.778;2023-04-30T07:46:04;14.50;99.90
13754;DHT22;6948;51.216;6.778;2023-04-30T07:48:30;14.60;99.90
13754;DHT22;6948;51.216;6.778;2023-04-30T07:50:55;14.70;99.90
13754;DHT22;6948;51.216;6.778;2023-04-30T07:53:22;14.70;99.90
13754;DHT22;6948;51.216;6.778;2023-04-30T07:55:48;14.70;99.90
13754;DHT22;6948;51.216;6.778;2023-04-30T07:58:14;14.80;99.90
13754;DHT22;6948;51.216;6.778;2023-04-30T08:00:39;14.90;99.90
13754;DHT22;6948;51.216;6.778;2023-04-30T08:03:05;14.90;99.90
13754;DHT22;6948;51.216;6.778;2023-04-30T08:05:31;14.80;99.90
13754;DHT22;6948;51.216;6.778;2023-04-30T08:07:56;14.80;99.90
13754;DHT22;6948;51.216;6.778;2023-04-30T08:10:22;14.90;99.90
13754;DHT22;6948;51.216;6.778;2023-04-30T08:12:48;15.00;99.90
13754;DHT22;6948;51.216;6.778;2023-04-30T08:15:14;15.00;99.90
13754;DHT22;6948;51.216;6.778;2023-04-30T08:17:40;15.10;99.90
13754;DHT22;6948;51.216;6.778;2023-04-30T08:20:06;15.00;99.90
13754;DHT22;6948;51.216;6.778;2023-04-30T08:22:32;15.00;99.90
13754;DHT22;6948;51.216;6.778;2023-04-30T08:24:58;15.10;99.90
13754;DHT22;6948;51.216;6.778;2023-04-30T08:27:26;15.30;99.90
13754;DHT22;6948;51.216;6.778;2023-04-30T08:29:51;15.40;99.90
13754;DHT22;6948;51.216;6.778;2023-04-30T08:32:18;15.50;99.90
13754;DHT22;6948;51.216;6.778;2023-04-30T08:34:44;15.60;99.90
13754;DHT22;6948;51.216;6.778;2023-04-30T08:37:09;15.50;99.90
13754;DHT22;6948;51.216;6.778;2023-04-30T08:39:35;15.60;99.90
13754;DHT22;6948;51.216;6.778;2023-04-30T08:42:02;15.70;99.90
13754;DHT22;6948;51.216;6.778;2023-04-30T08:44:29;15.80;99.90
13754;DHT22;6948;51.216;6.778;2023-04-30T08:46:56;15.80;99.90
13754;DHT22;6948;51.216;6.778;2023-04-30T08:49:23;15.90;99.90
13754;DHT22;6948;51.216;6.778;2023-04-30T08:51:50;16.00;99.90
13754;DHT22;6948;51.216;6.778;2023-04-30T08:54:17;16.10;99.90
13754;DHT22;6948;51.216;6.778;2023-04-30T08:56:44;16.10;99.90
13754;DHT22;6948;51.216;6.778;2023-04-30T08:59:11;16.00;99.90
13754;DHT22;6948;51.216;6.778;2023-04-30T09:01:37;15.90;99.90
13754;DHT22;6948;51.216;6.778;2023-04-30T09:04:04;15.80;99.90
13754;DHT22;6948;51.216;6.778;2023-04-30T09:06:30;15.70;99.90
13754;DHT22;6948;51.216;6.778;2023-04-30T09:08:56;15.90;99.90
13754;DHT22;6948;51.216;6.778;2023-04-30T09:11:24;15.90;99.90
13754;DHT22;6948;51.216;6.778;2023-04-30T09:13:51;16.00;99.90
13754;DHT22;6948;51.216;6.778;2023-04-30T09:16:18;16.00;99.90
13754;DHT22;6948;51.216;6.778;2023-04-30T09:18:44;16.10;99.90
13754;DHT22;6948;51.216;6.778;2023-04-30T09:21:10;16.20;99.90
13754;DHT22;6948;51.216;6.778;2023-04-30T09:23:36;16.20;99.90
13754;DHT22;6948;51.216;6.778;2023-04-30T09:26:02;16.50;99.90
13754;DHT22;6948;51.216;6.778;2023-04-30T09:28:28;16.50;99.90
13754;DHT22;6948;51.216;6.778;2023-04-30T09:30:56;16.50;99.90
13754;DHT22;6948;51.216;6.778;2023-04-30T09:33:22;16.60;99.90
13754;DHT22;6948;51.216;6.778;2023-04-30T09:35:48;16.50;99.90
13754;DHT22;6948;51.216;6.778;2023-04-30T09:38:31;16.60;99.90
13754;DHT22;6948;51.216;6.778;2023-04-30T09:40:58;16.50;99.90
13754;DHT22;6948;51.216;6.778;2023-04-30T09:43:25;16.50;99.90
13754;DHT22;6948;51.216;6.778;2023-04-30T09:45:51;16.50;99.90
13754;DHT22;6948;51.216;6.778;2023-04-30T09:48:21;16.60;99.90
13754;DHT22;6948;51.216;6.778;2023-04-30T09:50:48;16.60;99.90
13754;DHT22;6948;51.216;6.778;2023-04-30T09:53:14;16.50;99.90
13754;DHT22;6948;51.216;6.778;2023-04-30T09:55:45;16.40;99.90
13754;DHT22;6948;51.216;6.778;2023-04-30T09:58:12;16.40;99.90
13754;DHT22;6948;51.216;6.778;2023-04-30T10:00:38;16.30;99.90
13754;DHT22;6948;51.216;6.778;2023-04-30T10:03:14;16.40;99.90
13754;DHT22;6948;51.216;6.778;2023-04-30T10:05:44;16.50;99.90
13754;DHT22;6948;51.216;6.778;2023-04-30T10:08:23;16.60;99.90
13754;DHT22;6948;51.216;6.778;2023-04-30T10:10:57;16.70;99.90
13754;DHT22;6948;51.216;6.778;2023-04-30T10:13:25;16.70;99.90
13754;DHT22;6948;51.216;6.778;2023-04-30T10:15:58;16.80;99.90
13754;DHT22;6948;51.216;6.778;2023-04-30T10:18:30;16.80;99.90
13754;DHT22;6948;51.216;6.778;2023-04-30T10:20:58;16.90;99.90
13754;DHT22;6948;51.216;6.778;2023-04-30T10:23:28;17.00;99.90
13754;DHT22;6948;51.216;6.778;2023-04-30T10:25:56;17.10;99.90
13754;DHT22;6948;51.216;6.778;2023-04-30T10:28:22;17.10;99.90
13754;DHT22;6948;51.216;6.778;2023-04-30T10:30:49;17.00;99.90
13754;DHT22;6948;51.216;6.778;2023-04-30T10:35:58;17.00;99.90
13754;DHT22;6948;51.216;6.778;2023-04-30T10:38:26;17.20;99.90
13754;DHT22;6948;51.216;6.778;2023-04-30T10:40:56;17.40;99.90
13754;DHT22;6948;51.216;6.778;2023-04-30T10:43:24;17.60;99.90
13754;DHT22;6948;51.216;6.778;2023-04-30T10:45:49;17.80;99.90
13754;DHT22;6948;51.216;6.778;2023-04-30T10:48:16;17.70;99.90
13754;DHT22;6948;51.216;6.778;2023-04-30T10:50:51;17.70;99.90
13754;DHT22;6948;51.216;6.778;2023-04-30T10:53:19;17.80;99.90
13754;DHT22;6948;51.216;6.778;2023-04-30T10:56:00;17.60;99.90
13754;DHT22;6948;51.216;6.778;2023-04-30T10:58:32;17.60;99.90
13754;DHT22;6948;51.216;6.778;2023-04-30T11:03:40;17.60;99.90
13754;DHT22;6948;51.216;6.778;2023-04-30T11:06:13;17.50;99.90
13754;DHT22;6948;51.216;6.778;2023-04-30T11:08:42;17.30;99.90
13754;DHT22;6948;51.216;6.778;2023-04-30T11:11:09;17.50;99.90
13754;DHT22;6948;51.216;6.778;2023-04-30T11:13:58;17.40;99.90
13754;DHT22;6948;51.216;6.778;2023-04-30T11:16:28;17.40;99.90
13754;DHT22;6948;51.216;6.778;2023-04-30T11:19:06;17.40;99.90
13754;DHT22;6948;51.216;6.778;2023-04-30T11:21:33;17.40;99.90
13754;DHT22;6948;51.216;6.778;2023-04-30T11:24:05;17.40;99.90
13754;DHT22;6948;51.216;6.778;2023-04-30T11:27:06;17.50;99.90
13754;DHT22;6948;51.216;6.778;2023-04-30T11:29:34;17.60;99.90
13754;DHT22;6948;51.216;6.778;2023-04-30T11:32:00;17.70;99.90
13754;DHT22;6948;51.216;6.778;2023-04-30T11:34:28;17.60;99.90
13754;DHT22;6948;51.216;6.778;2023-04-30T11:36:58;17.50;99.90
13754;DHT22;6948;51.216;6.778;2023-04-30T11:39:25;17.70;99.90
13754;DHT22;6948;51.216;6.778;2023-04-30T11:41:53;17.80;99.90
13754;DHT22;6948;51.216;6.778;2023-04-30T11:44:26;17.70;99.90
13754;DHT22;6948;51.216;6.778;2023-04-30T11:46:52;17.70;99.90
13754;DHT22;6948;51.216;6.778;2023-04-30T11:49:19;17.60;99.90
13754;DHT22;6948;51.216;6.778;2023-04-30T11:51:49;17.80;99.90
13754;DHT22;6948;51.216;6.778;2023-04-30T11:54:16;17.90;99.90
13754;DHT22;6948;51.216;6.778;2023-04-30T11:56:47;17.80;99.90
13754;DHT22;6948;51.216;6.778;2023-04-30T11:59:13;17.80;99.90
13754;DHT22;6948;51.216;6.778;2023-04-30T12:01:40;17.70;99.90
13754;DHT22;6948;51.216;6.778;2023-04-30T12:04:06;17.60;99.90
13754;DHT22;6948;51.216;6.778;2023-04-30T12:06:33;17.70;99.90
13754;DHT22;6948;51.216;6.778;2023-04-30T12:09:00;17.60;99.90
13754;DHT22;6948;51.216;6.778;2023-04-30T12:11:30;17.70;99.90
13754;DHT22;6948;51.216;6.778;2023-04-30T12:14:00;17.70;99.90
13754;DHT22;6948;51.216;6.778;2023-04-30T12:19:15;17.70;99.90
13754;DHT22;6948;51.216;6.778;2023-04-30T12:21:42;17.80;99.90
13754;DHT22;6948;51.216;6.778;2023-04-30T12:24:11;17.90;99.90
13754;DHT22;6948;51.216;6.778;2023-04-30T12:26:38;17.90;99.90
13754;DHT22;6948;51.216;6.778;2023-04-30T12:29:08;18.00;99.90
13754;DHT22;6948;51.216;6.778;2023-04-30T12:31:36;18.10;99.90
13754;DHT22;6948;51.216;6.778;2023-04-30T12:34:04;18.30;99.90
13754;DHT22;6948;51.216;6.778;2023-04-30T12:36:33;18.50;99.90
13754;DHT22;6948;51.216;6.778;2023-04-30T12:39:06;18.60;99.90
13754;DHT22;6948;51.216;6.778;2023-04-30T12:41:46;18.70;99.90
13754;DHT22;6948;51.216;6.778;2023-04-30T12:44:23;18.70;99.90
13754;DHT22;6948;51.216;6.778;2023-04-30T12:46:50;18.80;99.90
13754;DHT22;6948;51.216;6.778;2023-04-30T12:49:23;18.80;99.90
13754;DHT22;6948;51.216;6.778;2023-04-30T12:51:50;18.70;99.90
13754;DHT22;6948;51.216;6.778;2023-04-30T12:54:24;18.70;99.90
13754;DHT22;6948;51.216;6.778;2023-04-30T12:57:08;18.70;99.90
13754;DHT22;6948;51.216;6.778;2023-04-30T12:59:39;18.80;99.90
13754;DHT22;6948;51.216;6.778;2023-04-30T13:02:07;18.70;99.90
13754;DHT22;6948;51.216;6.778;2023-04-30T13:04:34;18.70;99.90
13754;DHT22;6948;51.216;6.778;2023-04-30T13:07:00;18.70;99.90
13754;DHT22;6948;51.216;6.778;2023-04-30T13:09:26;18.80;99.90
13754;DHT22;6948;51.216;6.778;2023-04-30T13:11:51;18.80;99.90
13754;DHT22;6948;51.216;6.778;2023-04-30T13:14:18;18.70;99.90
13754;DHT22;6948;51.216;6.778;2023-04-30T13:16:44;18.60;99.90
13754;DHT22;6948;51.216;6.778;2023-04-30T13:19:09;18.60;99.90
13754;DHT22;6948;51.216;6.778;2023-04-30T13:21:36;18.70;99.90
13754;DHT22;6948;51.216;6.778;2023-04-30T13:24:01;18.70;99.90
13754;DHT22;6948;51.216;6.778;2023-04-30T13:26:28;18.90;99.90
13754;DHT22;6948;51.216;6.778;2023-04-30T13:28:54;18.90;99.90
13754;DHT22;6948;51.216;6.778;2023-04-30T13:31:20;18.80;99.90
13754;DHT22;6948;51.216;6.778;2023-04-30T13:33:46;18.80;99.90
13754;DHT22;6948;51.216;6.778;2023-04-30T13:36:12;18.60;99.90
13754;DHT22;6948;51.216;6.778;2023-04-30T13:38:38;18.70;99.90
13754;DHT22;6948;51.216;6.778;2023-04-30T13:41:04;18.70;99.90
13754;DHT22;6948;51.216;6.778;2023-04-30T13:43:30;18.70;99.90
13754;DHT22;6948;51.216;6.778;2023-04-30T13:45:56;18.60;99.90
13754;DHT22;6948;51.216;6.778;2023-04-30T13:48:23;18.70;99.90
13754;DHT22;6948;51.216;6.778;2023-04-30T13:50:51;18.80;99.90
13754;DHT22;6948;51.216;6.778;2023-04-30T13:53:17;18.80;99.90
13754;DHT22;6948;51.216;6.778;2023-04-30T13:55:42;18.80;99.90
13754;DHT22;6948;51.216;6.778;2023-04-30T13:58:08;18.70;99.90
13754;DHT22;6948;51.216;6.778;2023-04-30T14:00:34;18.70;99.90
13754;DHT22;6948;51.216;6.778;2023-04-30T14:02:59;18.60;99.90
13754;DHT22;6948;51.216;6.778;2023-04-30T14:05:26;18.50;99.90
13754;DHT22;6948;51.216;6.778;2023-04-30T14:07:51;18.60;99.90
13754;DHT22;6948;51.216;6.778;2023-04-30T14:10:17;18.60;99.90
13754;DHT22;6948;51.216;6.778;2023-04-30T14:12:43;18.60;99.90
13754;DHT22;6948;51.216;6.778;2023-04-30T14:15:09;18.70;99.90
13754;DHT22;6948;51.216;6.778;2023-04-30T14:17:34;18.70;99.90
13754;DHT22;6948;51.216;6.778;2023-04-30T14:20:00;18.80;99.90
13754;DHT22;6948;51.216;6.778;2023-04-30T14:22:26;18.80;99.90
13754;DHT22;6948;51.216;6.778;2023-04-30T14:24:52;18.70;99.90
13754;DHT22;6948;51.216;6.778;2023-04-30T14:27:18;18.70;99.90
13754;DHT22;6948;51.216;6.778;2023-04-30T14:29:43;18.70;99.90
13754;DHT22;6948;51.216;6.778;2023-04-30T14:32:12;18.70;99.90
13754;DHT22;6948;51.216;6.778;2023-04-30T14:34:41;18.90;99.90
13754;DHT22;6948;51.216;6.778;2023-04-30T14:37:07;19.10;99.90
13754;DHT22;6948;51.216;6.778;2023-04-30T14:39:32;19.20;99.90
13754;DHT22;6948;51.216;6.778;2023-04-30T14:41:58;19.30;99.90
13754;DHT22;6948;51.216;6.778;2023-04-30T14:44:24;19.20;99.90
13754;DHT22;6948;51.216;6.778;2023-04-30T14:46:51;19.10;99.90
13754;DHT22;6948;51.216;6.778;2023-04-30T14:49:16;18.90;99.90
13754;DHT22;6948;51.216;6.778;2023-04-30T14:51:42;18.80;99.90
13754;DHT22;6948;51.216;6.778;2023-04-30T14:54:08;18.80;99.90
13754;DHT22;6948;51.216;6.778;2023-04-30T14:56:33;18.80;99.90
13754;DHT22;6948;51.216;6.778;2023-04-30T14:59:00;18.80;99.90
13754;DHT22;6948;51.216;6.778;2023-04-30T15:01:25;18.90;99.90
13754;DHT22;6948;51.216;6.778;2023-04-30T15:03:51;18.90;99.90
13754;DHT22;6948;51.216;6.778;2023-04-30T15:06:17;18.80;99.90
13754;DHT22;6948;51.216;6.778;2023-04-30T15:08:43;18.90;99.90
13754;DHT22;6948;51.216;6.778;2023-04-30T15:11:09;19.00;99.90
13754;DHT22;6948;51.216;6.778;2023-04-30T15:13:37;19.10;99.90
13754;DHT22;6948;51.216;6.778;2023-04-30T15:16:03;19.10;99.90
13754;DHT22;6948;51.216;6.778;2023-04-30T15:18:29;19.00;99.90
13754;DHT22;6948;51.216;6.778;2023-04-30T15:20:55;18.90;99.90
13754;DHT22;6948;51.216;6.778;2023-04-30T15:23:20;18.90;99.90
13754;DHT22;6948;51.216;6.778;2023-04-30T15:25:47;18.80;99.90
13754;DHT22;6948;51.216;6.778;2023-04-30T15:28:12;18.80;99.90
13754;DHT22;6948;51.216;6.778;2023-04-30T15:30:38;18.90;99.90
13754;DHT22;6948;51.216;6.778;2023-04-30T15:33:04;19.00;99.90
13754;DHT22;6948;51.216;6.778;2023-04-30T15:35:30;18.90;99.90
13754;DHT22;6948;51.216;6.778;2023-04-30T15:37:55;18.90;99.90
13754;DHT22;6948;51.216;6.778;2023-04-30T15:40:21;19.00;99.90
13754;DHT22;6948;51.216;6.778;2023-04-30T15:42:47;18.80;99.90
13754;DHT22;6948;51.216;6.778;2023-04-30T15:45:12;18.80;99.90
13754;DHT22;6948;51.216;6.778;2023-04-30T15:47:38;19.00;99.90
13754;DHT22;6948;51.216;6.778;2023-04-30T15:50:04;18.90;99.90
13754;DHT22;6948;51.216;6.778;2023-04-30T15:52:30;18.90;99.90
13754;DHT22;6948;51.216;6.778;2023-04-30T15:54:56;18.90;99.90
13754;DHT22;6948;51.216;6.778;2023-04-30T15:57:21;19.00;99.90
13754;DHT22;6948;51.216;6.778;2023-04-30T15:59:47;19.00;99.90
13754;DHT22;6948;51.216;6.778;2023-04-30T16:02:13;19.10;99.90
13754;DHT22;6948;51.216;6.778;2023-04-30T16:04:38;19.20;99.90
13754;DHT22;6948;51.216;6.778;2023-04-30T16:07:04;19.10;99.90
13754;DHT22;6948;51.216;6.778;2023-04-30T16:09:30;19.20;99.90
13754;DHT22;6948;51.216;6.778;2023-04-30T16:11:59;19.10;99.90
13754;DHT22;6948;51.216;6.778;2023-04-30T16:14:24;19.10;99.90
13754;DHT22;6948;51.216;6.778;2023-04-30T16:16:50;19.10;99.90